Time;durP1;ratioP1;P1;durP2;ratioP2;P2;SDS_P1;SDS_P2;PMS_P1;PMS_P2;Temp;Humidity;BMP_temperature;BMP_pressure;BME280_temperature;BME280_humidity;BME280_pressure;Samples;Min_cycle;Max_cycle;Signal;HPM_P1;HPM_P2
2023/06/30 00:01:36;;;;;;;7.25;3.00;;;15.60;99.90;;;;;;5094914;28;20074;-65
2023/06/30 00:04:03;;;;;;;6.22;2.70;;;15.60;99.90;;;;;;5094928;28;20040;-64
2023/06/30 00:06:32;;;;;;;8.18;3.30;;;15.60;99.90;;;;;;5094368;28;20071;-63
2023/06/30 00:08:58;;;;;;;5.80;2.67;;;15.50;99.90;;;;;;5094499;28;20410;-65
2023/06/30 00:11:24;;;;;;;8.30;3.13;;;15.50;99.90;;;;;;5094801;28;20047;-65
2023/06/30 00:13:55;;;;;;;4.85;2.42;;;15.50;99.90;;;;;;5094877;28;20060;-64
2023/06/30 00:16:21;;;;;;;8.75;3.00;;;15.50;99.90;;;;;;5076250;28;20105;-64
2023/06/30 00:18:48;;;;;;;5.03;2.83;;;15.40;99.90;;;;;;5094010;28;20063;-65
2023/06/30 00:21:18;;;;;;;7.13;2.90;;;15.40;99.90;;;;;;5094185;28;20055;-65
2023/06/30 00:23:45;;;;;;;6.18;2.88;;;15.40;99.90;;;;;;5094754;28;20052;-64
2023/06/30 00:26:11;;;;;;;6.65;2.80;;;15.40;99.90;;;;;;5076444;28;20051;-65
2023/06/30 00:28:38;;;;;;;9.13;2.92;;;15.40;99.90;;;;;;5093960;28;20052;-64
2023/06/30 00:31:07;;;;;;;8.45;3.10;;;15.40;99.90;;;;;;5076421;28;20043;-64
2023/06/30 00:33:33;;;;;;;8.07;2.92;;;15.30;99.90;;;;;;5094026;28;20059;-64
2023/06/30 00:36:00;;;;;;;8.05;2.45;;;15.30;99.90;;;;;;5079408;28;20044;-64
2023/06/30 00:38:26;;;;;;;7.90;2.75;;;15.30;99.90;;;;;;5073472;28;20041;-64
2023/06/30 00:40:52;;;;;;;7.40;3.13;;;15.30;99.90;;;;;;5073886;28;20424;-64
2023/06/30 00:43:18;;;;;;;4.20;2.63;;;15.20;99.90;;;;;;5073561;28;20045;-64
2023/06/30 00:45:44;;;;;;;5.35;2.83;;;15.20;99.90;;;;;;5085828;28;20044;-64
2023/06/30 00:48:11;;;;;;;5.57;2.50;;;15.30;99.90;;;;;;5093563;28;20390;-65
2023/06/30 00:50:38;;;;;;;4.70;2.80;;;15.20;99.90;;;;;;5093957;28;20476;-63
2023/06/30 00:53:05;;;;;;;5.45;2.50;;;15.20;99.90;;;;;;5083061;28;20067;-64
2023/06/30 00:55:31;;;;;;;6.88;2.42;;;15.10;99.90;;;;;;5064862;28;20083;-64
2023/06/30 00:57:58;;;;;;;7.45;3.00;;;15.20;99.90;;;;;;5073034;28;20064;-64
2023/06/30 01:00:24;;;;;;;5.97;2.85;;;15.20;99.90;;;;;;5073715;28;20059;-64
2023/06/30 01:03:07;;;;;;;5.15;2.58;;;15.20;99.90;;;;;;5073546;28;20075;-64
2023/06/30 01:05:45;;;;;;;7.38;2.47;;;15.10;99.90;;;;;;5083897;28;20063;-63
2023/06/30 01:08:21;;;;;;;8.82;2.70;;;15.20;99.90;;;;;;5093073;28;20357;-64
2023/06/30 01:10:49;;;;;;;6.13;3.13;;;15.10;99.90;;;;;;5093757;28;20052;-63
2023/06/30 01:13:17;;;;;;;6.18;2.53;;;15.00;99.90;;;;;;5093522;28;20044;-63
2023/06/30 01:15:45;;;;;;;8.45;2.53;;;15.00;99.90;;;;;;5081571;28;20118;-64
2023/06/30 01:18:13;;;;;;;5.65;2.42;;;15.00;99.90;;;;;;5072397;28;20354;-65
2023/06/30 01:20:41;;;;;;;6.57;2.60;;;15.00;99.90;;;;;;5072903;28;20097;-64
2023/06/30 01:23:15;;;;;;;10.27;2.60;;;14.90;99.90;;;;;;5073202;28;20048;-64
2023/06/30 01:25:42;;;;;;;11.13;2.40;;;14.90;99.90;;;;;;5084337;28;20055;-65
2023/06/30 01:28:10;;;;;;;5.50;2.30;;;14.90;99.90;;;;;;5074997;28;20070;-65
2023/06/30 01:30:37;;;;;;;4.72;2.05;;;14.90;99.90;;;;;;5092948;28;20472;-63
2023/06/30 01:33:03;;;;;;;8.10;2.42;;;14.90;99.90;;;;;;5074761;28;20480;-63
2023/06/30 01:35:30;;;;;;;5.65;2.35;;;14.80;99.90;;;;;;5082820;28;20465;-64
2023/06/30 01:37:57;;;;;;;7.68;2.50;;;14.80;99.90;;;;;;5072342;28;20106;-65
2023/06/30 01:40:23;;;;;;;3.88;2.33;;;14.80;99.90;;;;;;5072595;28;20044;-63
2023/06/30 01:42:56;;;;;;;8.02;2.80;;;14.80;99.90;;;;;;5072787;28;20041;-64
2023/06/30 01:45:25;;;;;;;7.97;3.00;;;14.80;99.90;;;;;;5054935;28;20353;-64
2023/06/30 01:47:51;;;;;;;5.57;2.47;;;14.70;99.90;;;;;;5054960;28;20071;-65
2023/06/30 01:50:20;;;;;;;7.40;3.10;;;14.60;99.90;;;;;;5072357;28;20424;-64
2023/06/30 01:52:47;;;;;;;6.65;2.33;;;14.60;99.90;;;;;;5073336;28;20103;-64
2023/06/30 01:55:13;;;;;;;7.85;2.58;;;14.60;99.90;;;;;;5072927;28;20059;-65
2023/06/30 01:57:39;;;;;;;7.03;2.47;;;14.50;99.90;;;;;;5054207;28;20047;-63
2023/06/30 02:00:07;;;;;;;6.50;2.53;;;14.40;99.90;;;;;;5072574;28;20053;-64
2023/06/30 02:02:33;;;;;;;5.53;2.10;;;14.50;99.90;;;;;;5072579;28;20063;-64
2023/06/30 02:05:00;;;;;;;8.55;2.13;;;14.40;99.90;;;;;;5055068;28;20045;-65
2023/06/30 02:07:26;;;;;;;7.55;2.55;;;14.30;99.90;;;;;;5072591;28;20107;-64
2023/06/30 02:09:52;;;;;;;7.28;2.70;;;14.30;99.90;;;;;;5072479;28;20083;-64
2023/06/30 02:12:18;;;;;;;6.88;2.80;;;14.30;99.90;;;;;;5054780;28;20052;-64
2023/06/30 02:14:45;;;;;;;7.30;2.50;;;14.30;99.90;;;;;;5072888;28;20347;-64
2023/06/30 02:17:13;;;;;;;10.05;2.88;;;14.30;99.90;;;;;;5071931;28;20098;-65
2023/06/30 02:19:39;;;;;;;8.85;2.75;;;14.30;99.90;;;;;;5038357;28;20060;-64
2023/06/30 02:22:05;;;;;;;8.55;2.50;;;14.30;99.90;;;;;;5072270;28;20040;-63
2023/06/30 02:24:33;;;;;;;4.68;2.88;;;14.20;99.90;;;;;;5073594;28;20053;-64
2023/06/30 02:26:59;;;;;;;8.48;2.40;;;14.20;99.90;;;;;;5091673;28;20480;-65
2023/06/30 02:29:26;;;;;;;6.15;2.00;;;14.10;99.90;;;;;;5092286;28;20051;-65
2023/06/30 02:31:52;;;;;;;7.20;2.70;;;14.10;99.90;;;;;;5092503;28;20048;-64
2023/06/30 02:34:18;;;;;;;6.60;2.83;;;14.10;99.90;;;;;;5092002;28;20716;-64
2023/06/30 02:36:44;;;;;;;7.63;2.40;;;14.20;99.90;;;;;;5090608;28;20040;-64
2023/06/30 02:39:14;;;;;;;6.93;2.33;;;14.10;99.90;;;;;;5092296;28;20395;-63
2023/06/30 02:41:40;;;;;;;5.80;2.15;;;14.10;99.90;;;;;;5092434;28;20040;-64
2023/06/30 02:44:08;;;;;;;5.10;2.20;;;14.10;99.90;;;;;;5092169;28;20419;-63
2023/06/30 02:46:34;;;;;;;4.78;2.47;;;14.10;99.90;;;;;;5073361;28;20048;-62
2023/06/30 02:49:02;;;;;;;6.68;2.58;;;14.10;99.90;;;;;;5079549;28;20378;-64
2023/06/30 02:51:28;;;;;;;4.43;2.78;;;14.10;99.90;;;;;;5092688;28;20253;-63
2023/06/30 02:53:57;;;;;;;7.88;2.70;;;14.00;99.90;;;;;;5092265;28;20368;-63
2023/06/30 02:56:23;;;;;;;5.28;2.25;;;14.00;99.90;;;;;;5075005;28;20044;-64
2023/06/30 02:58:50;;;;;;;6.40;2.97;;;14.00;99.90;;;;;;5072342;28;20044;-64
2023/06/30 03:01:21;;;;;;;7.05;2.70;;;14.00;99.90;;;;;;5072166;28;20113;-64
2023/06/30 03:03:48;;;;;;;4.60;2.40;;;14.00;99.90;;;;;;5072121;28;20048;-63
2023/06/30 03:06:14;;;;;;;6.43;2.72;;;13.90;99.90;;;;;;5087004;28;20064;-64
2023/06/30 03:08:41;;;;;;;4.85;2.58;;;13.90;99.90;;;;;;5091515;28;20372;-63
2023/06/30 03:11:08;;;;;;;7.45;2.47;;;13.90;99.90;;;;;;5092191;28;20055;-63
2023/06/30 03:13:34;;;;;;;6.85;2.20;;;13.90;99.90;;;;;;5092016;28;20048;-63
2023/06/30 03:16:00;;;;;;;7.13;3.25;;;13.80;99.90;;;;;;5078592;28;20083;-63
2023/06/30 03:18:26;;;;;;;5.47;2.95;;;13.80;99.90;;;;;;5074579;28;20056;-63
2023/06/30 03:20:53;;;;;;;6.63;2.20;;;13.80;99.90;;;;;;5075558;28;20051;-63
2023/06/30 03:23:20;;;;;;;8.07;2.50;;;13.80;99.90;;;;;;5075674;28;20361;-63
2023/06/30 03:25:46;;;;;;;3.88;2.05;;;13.70;99.90;;;;;;5086262;28;20117;-62
2023/06/30 03:28:12;;;;;;;8.15;2.35;;;13.80;99.90;;;;;;5095030;28;20052;-63
2023/06/30 03:30:39;;;;;;;5.28;2.40;;;13.80;99.90;;;;;;5095486;28;20465;-63
2023/06/30 03:33:05;;;;;;;6.82;2.90;;;13.80;99.90;;;;;;5077291;28;20456;-63
2023/06/30 03:35:31;;;;;;;5.78;2.53;;;13.70;99.90;;;;;;5067850;28;20056;-63
2023/06/30 03:37:57;;;;;;;8.27;3.03;;;13.70;99.90;;;;;;5056902;28;20427;-63
2023/06/30 03:40:24;;;;;;;7.93;2.55;;;13.70;99.90;;;;;;5075265;28;20045;-64
2023/06/30 03:42:50;;;;;;;5.00;2.30;;;13.70;99.90;;;;;;5057542;28;20107;-63
2023/06/30 03:45:16;;;;;;;4.15;2.35;;;13.80;99.90;;;;;;5056623;28;20052;-63
2023/06/30 03:47:42;;;;;;;4.75;2.45;;;13.70;99.90;;;;;;5074387;28;20052;-63
2023/06/30 03:50:09;;;;;;;8.27;2.95;;;13.80;99.90;;;;;;5056848;28;20469;-64
2023/06/30 03:52:35;;;;;;;9.95;3.53;;;13.80;99.90;;;;;;5056994;28;20131;-63
2023/06/30 03:55:02;;;;;;;8.25;2.50;;;13.80;99.90;;;;;;5056568;28;20048;-63
2023/06/30 03:57:28;;;;;;;6.28;2.50;;;13.70;99.90;;;;;;5074144;28;20106;-63
2023/06/30 03:59:54;;;;;;;5.65;2.50;;;13.70;99.90;;;;;;5056898;28;20045;-63
2023/06/30 04:02:21;;;;;;;6.50;2.60;;;13.70;99.90;;;;;;5074591;28;20044;-63
2023/06/30 04:04:47;;;;;;;6.88;2.65;;;13.70;99.90;;;;;;5056712;28;20062;-63
2023/06/30 04:07:13;;;;;;;5.00;2.78;;;13.60;99.90;;;;;;5074228;28;20053;-64
2023/06/30 04:09:40;;;;;;;7.70;3.17;;;13.70;99.90;;;;;;5074271;28;20055;-62
2023/06/30 04:12:07;;;;;;;5.10;2.78;;;13.70;99.90;;;;;;5057105;28;20376;-64
2023/06/30 04:14:33;;;;;;;7.22;2.92;;;13.60;99.90;;;;;;5057027;28;20044;-63
2023/06/30 04:16:59;;;;;;;6.60;2.60;;;13.70;99.90;;;;;;5076200;28;20362;-63
2023/06/30 04:19:26;;;;;;;7.22;2.50;;;13.70;99.90;;;;;;5094522;28;20044;-64
2023/06/30 04:21:52;;;;;;;5.97;2.90;;;13.70;99.90;;;;;;5094763;28;20055;-63
2023/06/30 04:24:19;;;;;;;4.55;2.58;;;13.80;99.90;;;;;;5094306;28;20051;-63
2023/06/30 04:26:45;;;;;;;4.70;2.70;;;13.80;99.90;;;;;;5056922;28;20346;-64
2023/06/30 04:29:11;;;;;;;5.35;3.05;;;13.90;99.90;;;;;;5055410;28;20377;-63
2023/06/30 04:31:38;;;;;;;6.70;2.42;;;13.90;99.90;;;;;;5056299;28;20476;-64
2023/06/30 04:34:04;;;;;;;5.85;2.78;;;14.00;99.90;;;;;;5049352;28;20113;-63
2023/06/30 04:36:30;;;;;;;6.03;2.50;;;14.00;99.90;;;;;;5093363;28;20109;-63
2023/06/30 04:38:57;;;;;;;4.72;2.58;;;14.10;99.90;;;;;;5093966;28;20048;-63
2023/06/30 04:41:23;;;;;;;9.27;2.85;;;14.10;99.90;;;;;;5094215;28;20040;-65
2023/06/30 04:43:50;;;;;;;4.82;2.53;;;14.10;99.90;;;;;;5076402;28;20051;-64
2023/06/30 04:46:17;;;;;;;5.72;3.08;;;14.20;99.90;;;;;;5086891;28;20464;-63
2023/06/30 04:48:43;;;;;;;7.00;3.15;;;14.20;99.90;;;;;;5076294;28;20063;-64
2023/06/30 04:51:09;;;;;;;8.60;2.90;;;14.20;99.90;;;;;;5076178;28;20082;-63
2023/06/30 04:53:38;;;;;;;7.45;2.80;;;14.30;99.90;;;;;;5075771;28;20494;-64
2023/06/30 04:56:05;;;;;;;8.60;2.67;;;14.40;99.90;;;;;;5075554;28;20056;-63
2023/06/30 04:58:31;;;;;;;6.43;2.95;;;14.50;99.90;;;;;;5075444;28;20422;-63
2023/06/30 05:00:57;;;;;;;5.07;3.10;;;15.10;99.90;;;;;;5075751;28;20438;-64
2023/06/30 05:03:24;;;;;;;5.72;3.30;;;16.10;99.90;;;;;;5075754;28;20044;-65
2023/06/30 05:05:50;;;;;;;5.65;3.08;;;17.00;99.90;;;;;;5060302;28;20049;-64
2023/06/30 05:08:16;;;;;;;8.40;3.58;;;18.00;99.90;;;;;;5063886;28;20350;-64
2023/06/30 05:10:43;;;;;;;5.22;2.95;;;18.80;99.90;;;;;;5064745;28;20045;-64
2023/06/30 05:13:09;;;;;;;7.57;2.85;;;19.60;99.90;;;;;;5081232;28;20483;-64
2023/06/30 05:15:35;;;;;;;6.63;3.90;;;20.40;99.90;;;;;;5053728;28;20048;-64
2023/06/30 05:18:01;;;;;;;7.50;4.40;;;21.00;99.90;;;;;;5075119;28;20105;-64
2023/06/30 05:20:28;;;;;;;6.47;3.42;;;21.50;99.90;;;;;;5090118;28;20060;-64
2023/06/30 05:22:54;;;;;;;5.15;3.20;;;22.00;99.90;;;;;;5055680;28;20287;-65
2023/06/30 05:25:20;;;;;;;4.10;3.03;;;22.30;99.90;;;;;;5062313;28;20055;-64
2023/06/30 05:27:46;;;;;;;10.25;3.72;;;22.60;99.90;;;;;;5093005;28;20109;-64
2023/06/30 05:30:13;;;;;;;9.35;3.13;;;22.70;99.90;;;;;;5075020;28;20067;-63
2023/06/30 05:32:39;;;;;;;8.70;3.80;;;23.10;99.90;;;;;;5093114;28;20063;-64
2023/06/30 05:35:10;;;;;;;8.90;3.20;;;23.50;99.90;;;;;;5069542;28;20468;-64
2023/06/30 05:37:37;;;;;;;;;;;23.60;99.90;;;;;;5074662;28;20048;-64
2023/06/30 05:40:03;;;;;;;8.10;3.55;;;23.80;99.90;;;;;;5092564;28;19993;-64
2023/06/30 05:42:29;;;;;;;8.00;3.15;;;24.00;99.90;;;;;;5075256;28;20408;-64
2023/06/30 05:44:56;;;;;;;8.60;3.50;;;24.30;99.90;;;;;;5073793;28;20102;-64
2023/06/30 05:47:22;;;;;;;7.90;3.33;;;24.40;99.90;;;;;;5092788;28;20048;-64
2023/06/30 05:49:48;;;;;;;6.57;3.15;;;24.60;99.90;;;;;;5075395;28;20055;-64
2023/06/30 05:52:14;;;;;;;6.45;2.95;;;25.00;99.90;;;;;;5074759;28;20060;-64
2023/06/30 05:54:41;;;;;;;7.78;2.72;;;25.40;99.90;;;;;;5074153;28;20066;-64
2023/06/30 05:57:07;;;;;;;7.60;2.53;;;25.10;99.90;;;;;;5069182;28;20105;-64
2023/06/30 05:59:33;;;;;;;8.13;2.47;;;25.10;99.90;;;;;;5074117;28;20051;-64
2023/06/30 06:02:00;;;;;;;6.32;2.33;;;24.80;99.90;;;;;;5069636;28;20052;-64
2023/06/30 06:04:29;;;;;;;4.18;1.88;;;25.00;99.90;;;;;;5061588;28;20048;-65
2023/06/30 06:06:55;;;;;;;6.30;2.10;;;24.70;99.90;;;;;;5072750;28;20047;-63
2023/06/30 06:09:22;;;;;;;8.68;2.28;;;25.00;99.90;;;;;;5073046;28;20084;-64
2023/06/30 06:11:48;;;;;;;5.28;2.00;;;24.70;99.90;;;;;;5067284;28;20106;-64
2023/06/30 06:14:15;;;;;;;5.75;1.80;;;24.00;99.90;;;;;;5070289;28;20105;-65
2023/06/30 06:16:44;;;;;;;5.97;2.03;;;23.80;99.90;;;;;;5073612;28;20067;-64
2023/06/30 06:19:10;;;;;;;5.00;1.98;;;24.10;99.90;;;;;;5073030;28;20056;-64
2023/06/30 06:21:36;;;;;;;4.97;1.70;;;23.90;99.90;;;;;;5073397;28;20416;-64
2023/06/30 06:24:03;;;;;;;7.75;1.80;;;23.60;99.90;;;;;;5074731;28;20055;-65
2023/06/30 06:26:30;;;;;;;3.75;2.00;;;23.50;99.90;;;;;;5074262;28;20048;-64
2023/06/30 06:28:56;;;;;;;4.72;1.70;;;23.20;99.90;;;;;;5074374;28;20121;-64
2023/06/30 06:31:24;;;;;;;4.93;1.70;;;23.30;99.90;;;;;;5074396;28;20051;-64
2023/06/30 06:33:50;;;;;;;5.43;1.90;;;23.30;99.90;;;;;;5074636;28;20063;-65
2023/06/30 06:36:16;;;;;;;6.18;1.90;;;23.60;99.90;;;;;;5086499;28;20781;-65
2023/06/30 06:38:43;;;;;;;5.32;1.67;;;23.50;99.90;;;;;;5074105;28;20078;-64
2023/06/30 06:41:09;;;;;;;6.57;2.03;;;23.10;99.90;;;;;;5074077;28;20051;-63
2023/06/30 06:43:35;;;;;;;4.30;1.90;;;23.50;99.90;;;;;;5074402;28;20102;-64
2023/06/30 06:46:01;;;;;;;5.05;2.13;;;23.40;99.90;;;;;;5088819;28;20498;-64
2023/06/30 06:48:28;;;;;;;5.13;1.80;;;23.10;99.90;;;;;;5078536;28;20494;-65
2023/06/30 06:50:57;;;;;;;4.60;1.80;;;22.80;99.90;;;;;;5071614;28;20048;-65
2023/06/30 06:53:28;;;;;;;8.38;2.42;;;22.60;99.90;;;;;;5064892;28;20111;-65
2023/06/30 06:55:55;;;;;;;;;;;22.70;99.90;;;;;;5061308;28;20045;-63
2023/06/30 06:58:23;;;;;;;5.10;1.85;;;22.70;99.90;;;;;;5056045;28;20333;-64
2023/06/30 07:00:51;;;;;;;4.70;2.40;;;22.70;99.90;;;;;;5060624;28;20040;-64
2023/06/30 07:03:19;;;;;;;7.05;2.50;;;22.60;99.90;;;;;;5076253;28;20460;-65
2023/06/30 07:05:45;;;;;;;5.93;2.08;;;22.40;99.90;;;;;;5059340;28;20040;-64
2023/06/30 07:08:16;;;;;;;6.90;2.10;;;22.10;99.90;;;;;;5075413;28;20107;-64
2023/06/30 07:10:46;;;;;;;4.57;1.88;;;21.80;99.90;;;;;;5052953;28;20054;-64
2023/06/30 07:13:15;;;;;;;4.13;2.28;;;21.70;99.90;;;;;;5077654;28;20058;-64
2023/06/30 07:15:41;;;;;;;5.45;2.45;;;21.60;99.90;;;;;;5077332;28;20055;-64
2023/06/30 07:18:08;;;;;;;4.30;2.10;;;21.20;99.90;;;;;;5077529;28;20044;-65
2023/06/30 07:20:34;;;;;;;5.22;2.00;;;21.20;99.90;;;;;;5059116;28;20055;-64
2023/06/30 07:23:00;;;;;;;6.25;2.08;;;21.00;99.90;;;;;;5072099;28;20112;-65
2023/06/30 07:25:27;;;;;;;4.07;2.00;;;20.80;99.90;;;;;;5073869;28;20044;-65
2023/06/30 07:27:57;;;;;;;3.47;1.73;;;20.90;99.90;;;;;;5058071;28;20060;-64
2023/06/30 07:30:27;;;;;;;10.65;3.65;;;20.80;99.90;;;;;;5057405;28;20366;-63
2023/06/30 07:32:54;;;;;;;9.35;3.53;;;20.70;99.90;;;;;;5057407;28;20064;-64
2023/06/30 07:35:27;;;;;;;4.43;1.92;;;20.80;99.90;;;;;;5063357;28;20078;-64
2023/06/30 07:37:53;;;;;;;6.68;2.45;;;20.70;99.90;;;;;;5095038;28;20044;-64
2023/06/30 07:40:19;;;;;;;4.07;2.00;;;20.60;99.90;;;;;;5095628;28;20044;-65
2023/06/30 07:42:46;;;;;;;5.50;2.38;;;20.40;99.90;;;;;;5095249;28;20048;-64
2023/06/30 07:45:15;;;;;;;4.38;1.90;;;20.50;99.90;;;;;;5086512;28;20037;-64
2023/06/30 07:47:45;;;;;;;8.20;2.25;;;20.50;99.90;;;;;;5078675;28;20044;-64
2023/06/30 07:50:14;;;;;;;6.57;2.25;;;20.80;99.90;;;;;;5094331;28;20040;-65
2023/06/30 07:52:45;;;;;;;5.93;2.00;;;21.00;99.90;;;;;;5095256;28;20355;-65
2023/06/30 07:55:12;;;;;;;7.93;2.38;;;21.00;99.90;;;;;;5093422;28;20043;-64
2023/06/30 07:57:39;;;;;;;5.57;1.92;;;20.60;99.90;;;;;;5095081;28;20109;-65
2023/06/30 08:00:06;;;;;;;5.10;2.20;;;20.70;99.90;;;;;;5093948;28;20067;-64
2023/06/30 08:02:34;;;;;;;6.55;2.63;;;21.00;99.90;;;;;;5094105;28;20483;-64
2023/06/30 08:05:01;;;;;;;6.80;3.08;;;21.30;99.90;;;;;;5094066;28;20040;-64
2023/06/30 08:07:27;;;;;;;5.72;2.85;;;21.50;99.90;;;;;;5095261;28;20436;-63
2023/06/30 08:09:53;;;;;;;5.80;1.90;;;21.50;99.90;;;;;;5094519;28;20048;-64
2023/06/30 08:12:21;;;;;;;4.70;2.05;;;21.40;99.90;;;;;;5076960;28;20074;-65
2023/06/30 08:14:50;;;;;;;4.15;1.90;;;21.50;99.90;;;;;;5093787;28;20051;-64
2023/06/30 08:17:16;;;;;;;6.70;2.38;;;21.50;99.90;;;;;;5091365;28;20097;-64
2023/06/30 08:19:43;;;;;;;5.25;2.42;;;21.50;99.90;;;;;;5094139;28;20040;-64
2023/06/30 08:22:13;;;;;;;3.50;2.22;;;21.60;99.90;;;;;;5094703;28;20101;-64
2023/06/30 08:24:41;;;;;;;4.78;2.15;;;21.60;99.90;;;;;;5094725;28;20055;-65
2023/06/30 08:27:08;;;;;;;6.38;2.00;;;21.60;99.90;;;;;;5094570;28;20113;-64
2023/06/30 08:29:34;;;;;;;4.10;1.92;;;21.70;99.90;;;;;;5076283;28;20056;-64
2023/06/30 08:32:01;;;;;;;4.68;1.73;;;21.80;99.90;;;;;;5094412;28;20048;-64
2023/06/30 08:34:27;;;;;;;3.03;1.95;;;21.70;99.70;;;;;;5093418;28;20134;-65
2023/06/30 08:36:57;;;;;;;4.85;1.83;;;21.30;99.90;;;;;;5089710;28;20063;-64
2023/06/30 08:39:26;;;;;;;6.10;2.10;;;21.10;99.90;;;;;;5093753;28;20139;-64
2023/06/30 08:41:53;;;;;;;3.30;1.80;;;21.10;99.90;;;;;;5076412;28;20538;-65
2023/06/30 08:44:23;;;;;;;4.20;1.80;;;21.20;99.90;;;;;;5076282;28;20102;-64
2023/06/30 08:46:54;;;;;;;5.38;2.10;;;21.60;99.90;;;;;;5089232;28;20060;-64
2023/06/30 08:49:22;;;;;;;5.63;2.00;;;21.50;99.90;;;;;;5093726;28;20059;-65
2023/06/30 08:51:56;;;;;;;4.60;2.00;;;21.20;99.90;;;;;;5075969;28;20052;-64
2023/06/30 08:54:31;;;;;;;5.03;1.80;;;21.00;99.90;;;;;;5076111;28;20113;-64
2023/06/30 08:57:03;;;;;;;4.32;2.08;;;21.10;99.90;;;;;;5088774;28;20054;-65
2023/06/30 08:59:29;;;;;;;5.63;2.30;;;21.10;99.90;;;;;;5075054;28;20044;-64
2023/06/30 09:01:57;;;;;;;5.65;2.20;;;21.00;99.90;;;;;;5093594;28;20048;-65
2023/06/30 09:04:24;;;;;;;3.83;2.13;;;20.90;99.90;;;;;;5093551;28;20349;-64
2023/06/30 09:06:51;;;;;;;5.40;2.00;;;20.80;99.90;;;;;;5094282;28;20062;-65
2023/06/30 09:09:28;;;;;;;3.00;2.00;;;20.80;99.90;;;;;;5093077;28;20043;-64
2023/06/30 09:11:56;;;;;;;7.45;3.10;;;20.70;99.90;;;;;;5093519;28;20441;-64
2023/06/30 09:14:23;;;;;;;3.17;2.60;;;20.80;99.90;;;;;;5093291;28;20052;-65
2023/06/30 09:16:49;;;;;;;4.88;1.85;;;20.90;99.90;;;;;;5089450;28;20081;-64
2023/06/30 09:19:16;;;;;;;5.35;1.83;;;21.00;99.90;;;;;;5093153;28;20048;-64
2023/06/30 09:21:42;;;;;;;5.07;1.88;;;21.20;99.90;;;;;;5093248;28;20040;-65
2023/06/30 09:24:08;;;;;;;4.03;1.70;;;21.30;99.90;;;;;;5093018;28;20350;-65
2023/06/30 09:26:35;;;;;;;4.03;1.90;;;21.30;99.90;;;;;;5088705;28;20475;-64
2023/06/30 09:29:02;;;;;;;3.78;1.63;;;21.30;98.70;;;;;;5092813;28;20064;-64
2023/06/30 09:31:30;;;;;;;6.30;2.33;;;21.50;98.90;;;;;;5093003;28;20048;-64
2023/06/30 09:34:13;;;;;;;9.30;2.30;;;21.50;98.80;;;;;;5074899;28;20511;-64
2023/06/30 09:36:47;;;;;;;4.20;1.80;;;21.30;98.50;;;;;;5088899;28;20117;-64
2023/06/30 09:39:16;;;;;;;3.88;1.80;;;21.30;98.40;;;;;;5092486;28;20048;-65
2023/06/30 09:41:43;;;;;;;5.57;1.70;;;21.30;98.70;;;;;;5092944;28;20051;-64
2023/06/30 09:44:14;;;;;;;4.40;2.15;;;21.40;98.70;;;;;;5092713;28;20373;-64
2023/06/30 09:46:50;;;;;;;4.47;2.10;;;21.60;98.50;;;;;;5088806;28;20071;-64
2023/06/30 09:49:26;;;;;;;3.17;1.80;;;21.60;98.50;;;;;;5092303;28;20431;-65
2023/06/30 09:51:58;;;;;;;4.68;2.00;;;21.70;98.10;;;;;;5092913;28;20058;-64
2023/06/30 09:54:24;;;;;;;;;;;21.70;98.10;;;;;;5093267;28;20395;-65
2023/06/30 09:56:57;;;;;;;4.43;1.80;;;21.80;97.40;;;;;;5089865;28;20275;-65
2023/06/30 09:59:24;;;;;;;6.22;2.13;;;21.60;97.80;;;;;;5092219;28;20044;-65
2023/06/30 10:01:57;;;;;;;4.63;2.25;;;21.70;98.10;;;;;;5092747;28;20051;-65
2023/06/30 10:04:30;;;;;;;3.72;1.92;;;21.80;98.00;;;;;;5093118;28;20044;-65
2023/06/30 10:06:57;;;;;;;4.75;1.90;;;21.70;98.00;;;;;;5089051;28;20044;-64
2023/06/30 10:09:24;;;;;;;8.02;2.40;;;21.80;98.10;;;;;;5074676;28;20058;-66
2023/06/30 10:11:58;;;;;;;5.32;2.10;;;21.90;98.00;;;;;;5092788;28;20123;-64
2023/06/30 10:14:28;;;;;;;3.83;2.10;;;21.90;97.80;;;;;;5092123;28;20396;-65
2023/06/30 10:16:56;;;;;;;6.35;2.15;;;22.10;97.50;;;;;;5074927;28;20044;-65
2023/06/30 10:19:24;;;;;;;5.18;2.00;;;22.10;97.60;;;;;;5092205;28;20040;-64
2023/06/30 10:21:50;;;;;;;7.53;2.70;;;22.10;97.70;;;;;;5093382;28;20044;-64
2023/06/30 10:24:23;;;;;;;5.22;2.15;;;22.20;97.60;;;;;;5092526;28;20059;-65
2023/06/30 10:26:51;;;;;;;7.70;2.10;;;22.30;97.60;;;;;;5090098;28;20448;-65
2023/06/30 10:29:19;;;;;;;3.97;1.98;;;22.30;97.60;;;;;;5096385;28;20109;-64
2023/06/30 10:31:46;;;;;;;3.25;2.00;;;22.20;97.30;;;;;;5096633;28;20066;-65
2023/06/30 10:34:13;;;;;;;6.72;2.20;;;22.20;97.30;;;;;;5096484;28;20056;-65
2023/06/30 10:36:41;;;;;;;6.45;2.20;;;22.30;97.60;;;;;;5078453;28;20070;-65
2023/06/30 10:39:09;;;;;;;7.63;2.40;;;22.40;97.50;;;;;;5096022;28;20117;-65
2023/06/30 10:41:49;;;;;;;3.33;1.83;;;22.30;96.90;;;;;;5096332;28;20407;-65
2023/06/30 10:44:19;;;;;;;4.95;2.13;;;22.30;97.00;;;;;;5096084;28;20098;-66
2023/06/30 10:46:53;;;;;;;4.65;1.95;;;22.50;97.50;;;;;;5093010;28;20458;-65
2023/06/30 10:49:31;;;;;;;6.68;2.58;;;22.40;97.30;;;;;;5096212;28;20048;-64
2023/06/30 10:52:00;;;;;;;3.95;2.10;;;22.30;97.00;;;;;;5096108;28;20048;-65
2023/06/30 10:54:28;;;;;;;8.93;2.30;;;22.30;97.60;;;;;;5096239;28;20113;-65
2023/06/30 10:57:17;;;;;;;5.72;2.10;;;22.20;98.00;;;;;;5092545;28;20408;-64
2023/06/30 11:00:06;;;;;;;4.32;1.92;;;22.20;97.70;;;;;;5095669;28;20480;-65
2023/06/30 11:02:49;;;;;;;7.43;2.58;;;22.20;98.00;;;;;;5096039;28;20052;-65
2023/06/30 11:05:19;;;;;;;;;;;22.30;98.40;;;;;;5093141;28;20105;-64
2023/06/30 11:07:48;;;;;;;3.88;2.35;;;22.40;98.20;;;;;;5087973;28;19920;-65
2023/06/30 11:10:33;;;;;;;5.20;2.15;;;22.40;98.20;;;;;;5095774;28;20056;-65
2023/06/30 11:13:08;;;;;;;5.68;2.60;;;22.40;97.90;;;;;;5095856;28;20056;-65
2023/06/30 11:15:55;;;;;;;8.25;2.65;;;22.30;98.00;;;;;;5092401;28;20055;-65
2023/06/30 11:18:22;;;;;;;6.40;2.35;;;22.20;98.20;;;;;;5095459;28;20058;-64
2023/06/30 11:21:02;;;;;;;4.80;2.50;;;22.10;98.80;;;;;;5096015;28;20123;-64
2023/06/30 11:23:39;;;;;;;3.85;2.33;;;22.30;98.90;;;;;;5094138;28;20067;-64
2023/06/30 11:26:14;;;;;;;6.47;1.98;;;22.40;98.10;;;;;;5090887;28;20044;-65
2023/06/30 11:28:42;;;;;;;4.30;2.78;;;22.40;97.80;;;;;;5095818;28;20040;-67
2023/06/30 11:31:08;;;;;;;4.90;2.10;;;22.60;97.20;;;;;;5096021;28;20086;-65
2023/06/30 11:33:40;;;;;;;4.00;2.08;;;22.70;97.20;;;;;;5096431;28;20369;-65
2023/06/30 11:36:12;;;;;;;5.13;2.13;;;22.80;97.00;;;;;;5093325;28;20052;-65
2023/06/30 11:38:49;;;;;;;7.50;2.55;;;22.90;97.00;;;;;;5095588;28;20082;-66
2023/06/30 11:41:23;;;;;;;2.65;1.73;;;23.10;96.70;;;;;;5096391;28;20044;-66
2023/06/30 11:43:56;;;;;;;6.03;2.10;;;23.30;96.60;;;;;;5096237;28;20044;-66
2023/06/30 11:46:23;;;;;;;4.05;1.92;;;23.20;95.80;;;;;;5077941;28;20048;-66
2023/06/30 11:48:49;;;;;;;4.15;2.17;;;23.30;96.50;;;;;;5096366;28;20059;-66
2023/06/30 11:51:17;;;;;;;3.88;2.20;;;23.40;96.10;;;;;;5095874;28;20075;-66
2023/06/30 11:53:46;;;;;;;5.15;2.50;;;23.50;96.20;;;;;;5096333;28;20056;-65
2023/06/30 11:56:12;;;;;;;5.25;2.35;;;23.60;96.00;;;;;;5072018;28;20052;-66
2023/06/30 11:58:52;;;;;;;3.28;2.00;;;23.30;95.90;;;;;;5096214;28;20113;-66
2023/06/30 12:01:19;;;;;;;6.30;2.45;;;23.40;96.30;;;;;;5096326;28;20113;-66
2023/06/30 12:03:46;;;;;;;6.07;2.50;;;23.40;96.20;;;;;;5095863;28;20115;-66
2023/06/30 12:06:20;;;;;;;5.47;2.60;;;23.40;96.40;;;;;;5095252;28;20066;-66
2023/06/30 12:08:47;;;;;;;4.97;2.50;;;23.30;96.10;;;;;;5095717;28;20110;-63
2023/06/30 12:11:15;;;;;;;6.82;2.97;;;23.20;96.60;;;;;;5078987;28;20087;-66
2023/06/30 12:13:41;;;;;;;4.20;2.30;;;23.10;96.50;;;;;;5075933;28;20049;-64
2023/06/30 12:16:08;;;;;;;5.50;2.95;;;23.10;96.60;;;;;;5086000;28;20063;-65
2023/06/30 12:18:38;;;;;;;4.40;2.50;;;22.90;96.60;;;;;;5095729;28;20071;-65
2023/06/30 12:21:13;;;;;;;5.13;2.35;;;22.90;96.80;;;;;;5095483;28;20109;-64
2023/06/30 12:23:45;;;;;;;4.68;2.40;;;22.80;96.70;;;;;;5095888;28;20044;-65
2023/06/30 12:26:13;;;;;;;9.02;2.92;;;23.00;96.30;;;;;;5095953;28;20106;-65
2023/06/30 12:28:40;;;;;;;5.60;2.17;;;23.10;96.20;;;;;;5077576;28;20052;-65
2023/06/30 12:31:07;;;;;;;5.13;2.35;;;23.10;95.90;;;;;;5095816;28;20040;-65
2023/06/30 12:33:33;;;;;;;6.43;2.17;;;23.40;95.80;;;;;;5095461;28;20436;-66
2023/06/30 12:36:07;;;;;;;6.57;2.50;;;23.30;95.50;;;;;;5092704;28;20113;-66
2023/06/30 12:38:33;;;;;;;5.30;2.25;;;23.40;94.60;;;;;;5095484;28;20048;-66
2023/06/30 12:40:59;;;;;;;4.00;2.40;;;23.40;95.50;;;;;;5095765;28;20040;-66
2023/06/30 12:43:27;;;;;;;6.57;2.20;;;23.30;95.50;;;;;;5096105;28;20044;-65
2023/06/30 12:45:53;;;;;;;3.03;2.20;;;23.30;95.50;;;;;;5095704;28;20048;-65
2023/06/30 12:48:19;;;;;;;5.60;2.97;;;23.20;95.50;;;;;;5095697;28;20135;-66
2023/06/30 12:50:45;;;;;;;4.88;2.53;;;23.30;95.70;;;;;;5094470;28;20386;-67
2023/06/30 12:53:12;;;;;;;3.90;2.28;;;23.40;95.40;;;;;;5096022;28;20409;-65